sensor_id;sensor_type;location;lat;lon;timestamp;P1;durP1;ratioP1;P2;durP2;ratioP2
42364;SDS011;28498;54.400;18.566;2022-12-18T00:03:46;40.05;;;17.75;;
42364;SDS011;28498;54.400;18.566;2022-12-18T00:06:14;48.30;;;20.30;;
42364;SDS011;28498;54.400;18.566;2022-12-18T00:08:42;49.17;;;18.55;;
42364;SDS011;28498;54.400;18.566;2022-12-18T00:11:14;51.67;;;21.23;;
42364;SDS011;28498;54.400;18.566;2022-12-18T00:13:43;46.27;;;19.83;;
42364;SDS011;28498;54.400;18.566;2022-12-18T00:16:13;44.05;;;18.67;;
42364;SDS011;28498;54.400;18.566;2022-12-18T00:18:42;41.90;;;17.23;;
42364;SDS011;28498;54.400;18.566;2022-12-18T00:21:10;43.30;;;18.90;;
42364;SDS011;28498;54.400;18.566;2022-12-18T00:23:38;48.88;;;19.63;;
42364;SDS011;28498;54.400;18.566;2022-12-18T00:26:09;50.63;;;19.95;;
42364;SDS011;28498;54.400;18.566;2022-12-18T00:28:41;44.33;;;19.37;;
42364;SDS011;28498;54.400;18.566;2022-12-18T00:31:11;45.85;;;18.55;;
42364;SDS011;28498;54.400;18.566;2022-12-18T00:33:39;38.15;;;16.48;;
42364;SDS011;28498;54.400;18.566;2022-12-18T00:36:09;40.95;;;16.70;;
42364;SDS011;28498;54.400;18.566;2022-12-18T00:38:37;44.40;;;17.73;;
42364;SDS011;28498;54.400;18.566;2022-12-18T00:41:05;40.22;;;16.42;;
42364;SDS011;28498;54.400;18.566;2022-12-18T00:43:33;35.75;;;15.98;;
42364;SDS011;28498;54.400;18.566;2022-12-18T00:46:01;50.50;;;19.77;;
42364;SDS011;28498;54.400;18.566;2022-12-18T00:48:29;40.40;;;17.48;;
42364;SDS011;28498;54.400;18.566;2022-12-18T00:50:56;33.70;;;14.70;;
42364;SDS011;28498;54.400;18.566;2022-12-18T00:53:23;38.30;;;16.48;;
42364;SDS011;28498;54.400;18.566;2022-12-18T00:55:51;37.97;;;14.60;;
42364;SDS011;28498;54.400;18.566;2022-12-18T00:58:18;34.40;;;16.17;;
42364;SDS011;28498;54.400;18.566;2022-12-18T01:00:45;43.65;;;17.90;;
42364;SDS011;28498;54.400;18.566;2022-12-18T01:03:13;35.50;;;15.98;;
42364;SDS011;28498;54.400;18.566;2022-12-18T01:05:41;46.50;;;15.98;;
42364;SDS011;28498;54.400;18.566;2022-12-18T01:08:08;42.78;;;17.17;;
42364;SDS011;28498;54.400;18.566;2022-12-18T01:10:36;58.97;;;19.95;;
42364;SDS011;28498;54.400;18.566;2022-12-18T01:13:03;48.15;;;21.92;;
42364;SDS011;28498;54.400;18.566;2022-12-18T01:15:30;48.15;;;18.35;;
42364;SDS011;28498;54.400;18.566;2022-12-18T01:17:57;36.60;;;16.15;;
42364;SDS011;28498;54.400;18.566;2022-12-18T01:20:25;34.60;;;15.20;;
42364;SDS011;28498;54.400;18.566;2022-12-18T01:22:52;72.80;;;21.27;;
42364;SDS011;28498;54.400;18.566;2022-12-18T01:25:19;46.28;;;20.40;;
42364;SDS011;28498;54.400;18.566;2022-12-18T01:27:46;55.38;;;20.95;;
42364;SDS011;28498;54.400;18.566;2022-12-18T01:30:14;31.77;;;15.63;;
42364;SDS011;28498;54.400;18.566;2022-12-18T01:32:41;53.05;;;17.73;;
42364;SDS011;28498;54.400;18.566;2022-12-18T01:35:08;47.22;;;17.52;;
42364;SDS011;28498;54.400;18.566;2022-12-18T01:37:36;41.70;;;17.40;;
42364;SDS011;28498;54.400;18.566;2022-12-18T01:40:03;58.80;;;21.20;;
42364;SDS011;28498;54.400;18.566;2022-12-18T01:42:30;61.30;;;22.38;;
42364;SDS011;28498;54.400;18.566;2022-12-18T01:45:03;48.92;;;17.77;;
42364;SDS011;28498;54.400;18.566;2022-12-18T01:49:58;46.72;;;19.55;;
42364;SDS011;28498;54.400;18.566;2022-12-18T01:52:28;60.53;;;21.48;;
42364;SDS011;28498;54.400;18.566;2022-12-18T01:54:57;53.10;;;19.67;;
42364;SDS011;28498;54.400;18.566;2022-12-18T01:57:24;51.78;;;20.77;;
42364;SDS011;28498;54.400;18.566;2022-12-18T01:59:53;56.05;;;20.80;;
42364;SDS011;28498;54.400;18.566;2022-12-18T02:02:22;43.38;;;18.63;;
42364;SDS011;28498;54.400;18.566;2022-12-18T02:04:49;49.42;;;19.40;;
42364;SDS011;28498;54.400;18.566;2022-12-18T02:09:48;47.25;;;19.48;;
42364;SDS011;28498;54.400;18.566;2022-12-18T02:12:33;48.72;;;19.33;;
42364;SDS011;28498;54.400;18.566;2022-12-18T02:15:27;42.28;;;15.25;;
42364;SDS011;28498;54.400;18.566;2022-12-18T02:18:11;43.95;;;17.73;;
42364;SDS011;28498;54.400;18.566;2022-12-18T02:26:37;48.60;;;19.73;;
42364;SDS011;28498;54.400;18.566;2022-12-18T02:29:26;45.03;;;19.15;;
42364;SDS011;28498;54.400;18.566;2022-12-18T02:31:58;48.30;;;17.92;;
42364;SDS011;28498;54.400;18.566;2022-12-18T02:34:27;51.65;;;19.15;;
42364;SDS011;28498;54.400;18.566;2022-12-18T02:36:56;48.60;;;19.25;;
42364;SDS011;28498;54.400;18.566;2022-12-18T02:39:26;44.47;;;17.40;;
42364;SDS011;28498;54.400;18.566;2022-12-18T02:41:55;53.80;;;19.17;;
42364;SDS011;28498;54.400;18.566;2022-12-18T02:44:23;44.33;;;18.25;;
42364;SDS011;28498;54.400;18.566;2022-12-18T02:46:52;48.78;;;17.40;;
42364;SDS011;28498;54.400;18.566;2022-12-18T02:52:09;38.95;;;16.60;;
42364;SDS011;28498;54.400;18.566;2022-12-18T02:57:56;37.80;;;17.05;;
42364;SDS011;28498;54.400;18.566;2022-12-18T03:05:39;34.15;;;15.55;;
42364;SDS011;28498;54.400;18.566;2022-12-18T03:08:23;35.58;;;15.90;;
42364;SDS011;28498;54.400;18.566;2022-12-18T03:13:35;31.45;;;13.85;;
42364;SDS011;28498;54.400;18.566;2022-12-18T03:16:05;34.40;;;14.80;;
42364;SDS011;28498;54.400;18.566;2022-12-18T03:18:46;43.92;;;16.48;;
42364;SDS011;28498;54.400;18.566;2022-12-18T03:21:17;36.47;;;15.20;;
42364;SDS011;28498;54.400;18.566;2022-12-18T03:23:57;37.08;;;16.65;;
42364;SDS011;28498;54.400;18.566;2022-12-18T03:26:25;34.58;;;14.38;;
42364;SDS011;28498;54.400;18.566;2022-12-18T03:29:07;38.65;;;16.45;;
42364;SDS011;28498;54.400;18.566;2022-12-18T03:31:40;35.47;;;13.90;;
42364;SDS011;28498;54.400;18.566;2022-12-18T03:34:09;39.75;;;15.13;;
42364;SDS011;28498;54.400;18.566;2022-12-18T03:36:47;36.97;;;15.70;;
42364;SDS011;28498;54.400;18.566;2022-12-18T03:39:15;38.83;;;14.82;;
42364;SDS011;28498;54.400;18.566;2022-12-18T03:42:43;36.85;;;14.90;;
42364;SDS011;28498;54.400;18.566;2022-12-18T03:47:16;35.85;;;14.82;;
42364;SDS011;28498;54.400;18.566;2022-12-18T03:50:10;30.60;;;11.75;;
42364;SDS011;28498;54.400;18.566;2022-12-18T03:52:42;25.75;;;11.52;;
42364;SDS011;28498;54.400;18.566;2022-12-18T03:55:17;32.38;;;13.20;;
42364;SDS011;28498;54.400;18.566;2022-12-18T03:57:45;27.88;;;12.40;;
42364;SDS011;28498;54.400;18.566;2022-12-18T04:00:14;22.38;;;10.32;;
42364;SDS011;28498;54.400;18.566;2022-12-18T04:02:53;34.92;;;13.27;;
42364;SDS011;28498;54.400;18.566;2022-12-18T04:05:22;34.97;;;14.80;;
42364;SDS011;28498;54.400;18.566;2022-12-18T04:07:51;23.83;;;10.25;;
42364;SDS011;28498;54.400;18.566;2022-12-18T04:10:21;25.20;;;11.43;;
42364;SDS011;28498;54.400;18.566;2022-12-18T04:12:48;31.08;;;12.30;;
42364;SDS011;28498;54.400;18.566;2022-12-18T04:15:15;27.98;;;14.02;;
42364;SDS011;28498;54.400;18.566;2022-12-18T04:17:48;25.45;;;12.05;;
42364;SDS011;28498;54.400;18.566;2022-12-18T04:20:16;29.42;;;13.57;;
42364;SDS011;28498;54.400;18.566;2022-12-18T04:22:43;26.45;;;11.88;;
42364;SDS011;28498;54.400;18.566;2022-12-18T04:25:11;23.15;;;10.15;;
42364;SDS011;28498;54.400;18.566;2022-12-18T04:27:38;22.95;;;10.35;;
42364;SDS011;28498;54.400;18.566;2022-12-18T04:30:06;21.10;;;10.60;;
42364;SDS011;28498;54.400;18.566;2022-12-18T04:32:34;20.40;;;11.20;;
42364;SDS011;28498;54.400;18.566;2022-12-18T04:35:01;24.60;;;11.32;;
42364;SDS011;28498;54.400;18.566;2022-12-18T04:37:30;27.15;;;10.88;;
42364;SDS011;28498;54.400;18.566;2022-12-18T04:39:57;28.55;;;11.55;;
42364;SDS011;28498;54.400;18.566;2022-12-18T04:42:24;22.33;;;9.98;;
42364;SDS011;28498;54.400;18.566;2022-12-18T04:44:52;26.05;;;11.50;;
42364;SDS011;28498;54.400;18.566;2022-12-18T04:47:19;16.38;;;8.90;;
42364;SDS011;28498;54.400;18.566;2022-12-18T04:49:46;21.88;;;9.30;;
42364;SDS011;28498;54.400;18.566;2022-12-18T04:52:13;25.15;;;10.85;;
42364;SDS011;28498;54.400;18.566;2022-12-18T04:54:41;26.40;;;9.45;;
42364;SDS011;28498;54.400;18.566;2022-12-18T04:57:09;22.90;;;11.45;;
42364;SDS011;28498;54.400;18.566;2022-12-18T04:59:36;20.30;;;8.00;;
42364;SDS011;28498;54.400;18.566;2022-12-18T05:02:03;26.02;;;11.32;;
42364;SDS011;28498;54.400;18.566;2022-12-18T05:04:31;22.23;;;9.82;;
42364;SDS011;28498;54.400;18.566;2022-12-18T05:06:58;14.68;;;7.72;;
42364;SDS011;28498;54.400;18.566;2022-12-18T05:09:25;18.77;;;8.90;;
42364;SDS011;28498;54.400;18.566;2022-12-18T05:11:52;20.10;;;9.98;;
42364;SDS011;28498;54.400;18.566;2022-12-18T05:14:20;21.40;;;9.48;;
42364;SDS011;28498;54.400;18.566;2022-12-18T05:16:47;20.00;;;9.55;;
42364;SDS011;28498;54.400;18.566;2022-12-18T05:19:14;20.05;;;9.27;;
42364;SDS011;28498;54.400;18.566;2022-12-18T05:21:42;24.65;;;9.55;;
42364;SDS011;28498;54.400;18.566;2022-12-18T05:24:11;18.25;;;8.73;;
42364;SDS011;28498;54.400;18.566;2022-12-18T05:26:38;16.92;;;7.65;;
42364;SDS011;28498;54.400;18.566;2022-12-18T05:29:06;19.27;;;8.30;;
42364;SDS011;28498;54.400;18.566;2022-12-18T05:31:34;18.10;;;7.53;;
42364;SDS011;28498;54.400;18.566;2022-12-18T05:34:05;13.00;;;6.43;;
42364;SDS011;28498;54.400;18.566;2022-12-18T05:36:32;23.48;;;8.75;;
42364;SDS011;28498;54.400;18.566;2022-12-18T05:38:59;18.90;;;8.82;;
42364;SDS011;28498;54.400;18.566;2022-12-18T05:41:27;23.77;;;9.55;;
42364;SDS011;28498;54.400;18.566;2022-12-18T05:43:54;22.10;;;7.97;;
42364;SDS011;28498;54.400;18.566;2022-12-18T05:46:22;17.98;;;8.20;;
42364;SDS011;28498;54.400;18.566;2022-12-18T05:48:50;19.00;;;8.85;;
42364;SDS011;28498;54.400;18.566;2022-12-18T05:51:20;24.17;;;9.75;;
42364;SDS011;28498;54.400;18.566;2022-12-18T05:53:48;21.30;;;9.60;;
42364;SDS011;28498;54.400;18.566;2022-12-18T05:56:17;22.75;;;9.43;;
42364;SDS011;28498;54.400;18.566;2022-12-18T05:58:46;19.45;;;8.05;;
42364;SDS011;28498;54.400;18.566;2022-12-18T06:01:15;20.67;;;10.23;;
42364;SDS011;28498;54.400;18.566;2022-12-18T06:03:44;17.92;;;10.27;;
42364;SDS011;28498;54.400;18.566;2022-12-18T06:06:27;19.50;;;9.10;;
42364;SDS011;28498;54.400;18.566;2022-12-18T06:08:55;21.92;;;9.82;;
42364;SDS011;28498;54.400;18.566;2022-12-18T06:11:23;21.35;;;10.40;;
42364;SDS011;28498;54.400;18.566;2022-12-18T06:13:53;27.15;;;11.18;;
42364;SDS011;28498;54.400;18.566;2022-12-18T06:16:24;18.38;;;10.57;;
42364;SDS011;28498;54.400;18.566;2022-12-18T06:18:52;16.13;;;7.82;;
42364;SDS011;28498;54.400;18.566;2022-12-18T06:21:19;25.58;;;10.88;;
42364;SDS011;28498;54.400;18.566;2022-12-18T06:23:46;23.80;;;11.45;;
42364;SDS011;28498;54.400;18.566;2022-12-18T06:26:13;17.45;;;9.30;;
42364;SDS011;28498;54.400;18.566;2022-12-18T06:28:41;24.20;;;10.80;;
42364;SDS011;28498;54.400;18.566;2022-12-18T06:31:09;22.45;;;10.00;;
42364;SDS011;28498;54.400;18.566;2022-12-18T06:33:37;19.73;;;9.70;;
42364;SDS011;28498;54.400;18.566;2022-12-18T06:36:05;18.92;;;9.02;;
42364;SDS011;28498;54.400;18.566;2022-12-18T06:38:35;22.23;;;10.05;;
42364;SDS011;28498;54.400;18.566;2022-12-18T06:41:07;23.15;;;9.50;;
42364;SDS011;28498;54.400;18.566;2022-12-18T06:43:42;16.10;;;8.02;;
42364;SDS011;28498;54.400;18.566;2022-12-18T06:46:10;22.80;;;11.00;;
42364;SDS011;28498;54.400;18.566;2022-12-18T06:48:37;20.77;;;9.13;;
42364;SDS011;28498;54.400;18.566;2022-12-18T06:51:05;23.65;;;10.27;;
42364;SDS011;28498;54.400;18.566;2022-12-18T06:53:32;19.48;;;8.85;;
42364;SDS011;28498;54.400;18.566;2022-12-18T06:56:01;24.08;;;9.65;;
42364;SDS011;28498;54.400;18.566;2022-12-18T06:58:36;20.08;;;9.90;;
42364;SDS011;28498;54.400;18.566;2022-12-18T07:01:04;24.40;;;9.75;;
42364;SDS011;28498;54.400;18.566;2022-12-18T07:03:32;17.50;;;8.23;;
42364;SDS011;28498;54.400;18.566;2022-12-18T07:05:59;23.23;;;10.00;;
42364;SDS011;28498;54.400;18.566;2022-12-18T07:08:29;25.55;;;10.73;;
42364;SDS011;28498;54.400;18.566;2022-12-18T07:10:56;23.40;;;11.43;;
42364;SDS011;28498;54.400;18.566;2022-12-18T07:13:24;21.38;;;10.40;;
42364;SDS011;28498;54.400;18.566;2022-12-18T07:15:51;24.75;;;10.18;;
42364;SDS011;28498;54.400;18.566;2022-12-18T07:18:18;20.88;;;10.80;;
42364;SDS011;28498;54.400;18.566;2022-12-18T07:20:46;26.15;;;11.30;;
42364;SDS011;28498;54.400;18.566;2022-12-18T07:23:14;21.65;;;10.35;;
42364;SDS011;28498;54.400;18.566;2022-12-18T07:25:41;19.83;;;10.57;;
42364;SDS011;28498;54.400;18.566;2022-12-18T07:28:08;25.45;;;9.35;;
42364;SDS011;28498;54.400;18.566;2022-12-18T07:30:42;24.58;;;9.93;;
42364;SDS011;28498;54.400;18.566;2022-12-18T07:33:09;23.23;;;10.40;;
42364;SDS011;28498;54.400;18.566;2022-12-18T07:35:37;26.00;;;10.45;;
42364;SDS011;28498;54.400;18.566;2022-12-18T07:38:04;23.83;;;10.55;;
42364;SDS011;28498;54.400;18.566;2022-12-18T07:40:32;22.60;;;10.57;;
42364;SDS011;28498;54.400;18.566;2022-12-18T07:42:59;25.90;;;9.85;;
42364;SDS011;28498;54.400;18.566;2022-12-18T07:45:26;28.55;;;10.82;;
42364;SDS011;28498;54.400;18.566;2022-12-18T07:47:54;24.48;;;10.43;;
42364;SDS011;28498;54.400;18.566;2022-12-18T07:50:21;24.73;;;10.45;;
42364;SDS011;28498;54.400;18.566;2022-12-18T07:52:48;27.33;;;12.30;;
42364;SDS011;28498;54.400;18.566;2022-12-18T07:55:16;23.52;;;10.25;;
42364;SDS011;28498;54.400;18.566;2022-12-18T07:57:43;22.15;;;9.80;;
42364;SDS011;28498;54.400;18.566;2022-12-18T08:00:24;23.33;;;10.35;;
42364;SDS011;28498;54.400;18.566;2022-12-18T08:02:51;24.33;;;11.70;;
42364;SDS011;28498;54.400;18.566;2022-12-18T08:05:19;19.42;;;9.02;;
42364;SDS011;28498;54.400;18.566;2022-12-18T08:07:47;20.77;;;10.13;;
42364;SDS011;28498;54.400;18.566;2022-12-18T08:10:14;23.70;;;10.10;;
42364;SDS011;28498;54.400;18.566;2022-12-18T08:12:42;23.60;;;10.25;;
42364;SDS011;28498;54.400;18.566;2022-12-18T08:15:09;25.40;;;11.65;;
42364;SDS011;28498;54.400;18.566;2022-12-18T08:17:36;20.40;;;10.73;;
42364;SDS011;28498;54.400;18.566;2022-12-18T08:20:04;22.75;;;9.68;;
42364;SDS011;28498;54.400;18.566;2022-12-18T08:22:33;21.45;;;11.25;;
42364;SDS011;28498;54.400;18.566;2022-12-18T08:25:02;29.02;;;13.13;;
42364;SDS011;28498;54.400;18.566;2022-12-18T08:27:30;25.42;;;10.35;;
42364;SDS011;28498;54.400;18.566;2022-12-18T08:29:58;31.02;;;13.52;;
42364;SDS011;28498;54.400;18.566;2022-12-18T08:32:25;25.58;;;11.27;;
42364;SDS011;28498;54.400;18.566;2022-12-18T08:34:54;40.20;;;15.07;;
42364;SDS011;28498;54.400;18.566;2022-12-18T08:37:21;31.58;;;12.30;;
42364;SDS011;28498;54.400;18.566;2022-12-18T08:39:48;30.00;;;12.80;;
42364;SDS011;28498;54.400;18.566;2022-12-18T08:42:16;20.92;;;8.68;;
42364;SDS011;28498;54.400;18.566;2022-12-18T08:45:02;24.17;;;10.77;;
42364;SDS011;28498;54.400;18.566;2022-12-18T08:47:30;25.95;;;10.35;;
42364;SDS011;28498;54.400;18.566;2022-12-18T08:49:57;20.80;;;10.05;;
42364;SDS011;28498;54.400;18.566;2022-12-18T08:52:24;20.25;;;8.02;;
42364;SDS011;28498;54.400;18.566;2022-12-18T08:54:52;23.23;;;9.30;;
42364;SDS011;28498;54.400;18.566;2022-12-18T08:57:19;20.75;;;10.55;;
42364;SDS011;28498;54.400;18.566;2022-12-18T08:59:46;41.25;;;15.77;;
42364;SDS011;28498;54.400;18.566;2022-12-18T09:02:14;17.10;;;6.60;;
42364;SDS011;28498;54.400;18.566;2022-12-18T09:04:42;21.08;;;8.20;;
42364;SDS011;28498;54.400;18.566;2022-12-18T09:07:11;16.60;;;8.45;;
42364;SDS011;28498;54.400;18.566;2022-12-18T09:09:39;23.25;;;8.73;;
42364;SDS011;28498;54.400;18.566;2022-12-18T09:12:06;18.55;;;8.77;;
42364;SDS011;28498;54.400;18.566;2022-12-18T09:14:33;18.63;;;7.95;;
42364;SDS011;28498;54.400;18.566;2022-12-18T09:17:00;22.73;;;10.13;;
42364;SDS011;28498;54.400;18.566;2022-12-18T09:19:28;16.17;;;7.90;;
42364;SDS011;28498;54.400;18.566;2022-12-18T09:21:55;15.80;;;8.35;;
42364;SDS011;28498;54.400;18.566;2022-12-18T09:24:22;18.25;;;8.70;;
42364;SDS011;28498;54.400;18.566;2022-12-18T09:26:52;18.25;;;8.13;;
42364;SDS011;28498;54.400;18.566;2022-12-18T09:29:23;17.65;;;8.35;;
42364;SDS011;28498;54.400;18.566;2022-12-18T09:31:50;19.35;;;8.43;;
42364;SDS011;28498;54.400;18.566;2022-12-18T09:34:17;19.90;;;9.35;;
42364;SDS011;28498;54.400;18.566;2022-12-18T09:36:47;14.90;;;7.45;;
42364;SDS011;28498;54.400;18.566;2022-12-18T09:39:15;20.10;;;9.38;;
42364;SDS011;28498;54.400;18.566;2022-12-18T09:41:46;22.00;;;8.88;;
42364;SDS011;28498;54.400;18.566;2022-12-18T09:44:16;22.77;;;10.93;;
42364;SDS011;28498;54.400;18.566;2022-12-18T09:46:46;17.60;;;8.60;;
42364;SDS011;28498;54.400;18.566;2022-12-18T09:49:18;39.88;;;16.88;;
42364;SDS011;28498;54.400;18.566;2022-12-18T09:51:52;36.90;;;13.95;;
42364;SDS011;28498;54.400;18.566;2022-12-18T09:54:41;32.63;;;11.88;;
42364;SDS011;28498;54.400;18.566;2022-12-18T09:57:14;30.05;;;11.80;;
42364;SDS011;28498;54.400;18.566;2022-12-18T09:59:46;22.33;;;9.10;;
42364;SDS011;28498;54.400;18.566;2022-12-18T10:02:36;21.17;;;9.80;;
42364;SDS011;28498;54.400;18.566;2022-12-18T10:05:14;19.35;;;8.60;;
42364;SDS011;28498;54.400;18.566;2022-12-18T10:08:05;16.95;;;8.75;;
42364;SDS011;28498;54.400;18.566;2022-12-18T10:10:49;21.63;;;10.13;;
42364;SDS011;28498;54.400;18.566;2022-12-18T10:13:41;15.43;;;8.32;;
42364;SDS011;28498;54.400;18.566;2022-12-18T10:16:22;21.35;;;10.00;;
42364;SDS011;28498;54.400;18.566;2022-12-18T10:27:45;20.58;;;9.50;;
42364;SDS011;28498;54.400;18.566;2022-12-18T10:30:13;25.08;;;11.80;;
42364;SDS011;28498;54.400;18.566;2022-12-18T10:32:43;25.77;;;10.23;;
42364;SDS011;28498;54.400;18.566;2022-12-18T10:35:23;25.20;;;10.18;;
42364;SDS011;28498;54.400;18.566;2022-12-18T10:40:47;25.52;;;9.65;;
42364;SDS011;28498;54.400;18.566;2022-12-18T10:43:28;23.42;;;9.98;;
42364;SDS011;28498;54.400;18.566;2022-12-18T10:48:40;20.25;;;8.25;;
42364;SDS011;28498;54.400;18.566;2022-12-18T10:51:20;19.23;;;8.32;;
42364;SDS011;28498;54.400;18.566;2022-12-18T10:53:56;22.73;;;8.32;;
42364;SDS011;28498;54.400;18.566;2022-12-18T10:56:28;17.02;;;7.05;;
42364;SDS011;28498;54.400;18.566;2022-12-18T10:58:57;20.58;;;8.85;;
42364;SDS011;28498;54.400;18.566;2022-12-18T11:01:51;22.27;;;8.30;;
42364;SDS011;28498;54.400;18.566;2022-12-18T11:11:56;20.05;;;8.73;;
42364;SDS011;28498;54.400;18.566;2022-12-18T11:14:29;19.88;;;8.82;;
42364;SDS011;28498;54.400;18.566;2022-12-18T11:17:16;16.85;;;7.88;;
42364;SDS011;28498;54.400;18.566;2022-12-18T11:19:57;19.88;;;8.73;;
42364;SDS011;28498;54.400;18.566;2022-12-18T11:22:26;19.67;;;8.57;;
42364;SDS011;28498;54.400;18.566;2022-12-18T11:25:04;25.95;;;11.88;;
42364;SDS011;28498;54.400;18.566;2022-12-18T11:28:03;21.58;;;10.30;;
42364;SDS011;28498;54.400;18.566;2022-12-18T11:30:33;18.98;;;7.80;;
42364;SDS011;28498;54.400;18.566;2022-12-18T11:40:46;20.95;;;8.32;;
42364;SDS011;28498;54.400;18.566;2022-12-18T11:43:28;15.82;;;7.85;;
42364;SDS011;28498;54.400;18.566;2022-12-18T11:46:05;17.35;;;6.93;;
42364;SDS011;28498;54.400;18.566;2022-12-18T11:48:47;17.15;;;7.47;;
42364;SDS011;28498;54.400;18.566;2022-12-18T11:51:26;17.30;;;6.57;;
42364;SDS011;28498;54.400;18.566;2022-12-18T11:53:58;15.48;;;7.53;;
42364;SDS011;28498;54.400;18.566;2022-12-18T11:56:32;18.90;;;8.80;;
42364;SDS011;28498;54.400;18.566;2022-12-18T11:59:08;16.42;;;6.78;;
42364;SDS011;28498;54.400;18.566;2022-12-18T12:07:25;13.27;;;5.95;;
42364;SDS011;28498;54.400;18.566;2022-12-18T12:24:10;31.42;;;11.85;;
42364;SDS011;28498;54.400;18.566;2022-12-18T12:30:08;18.95;;;8.00;;
42364;SDS011;28498;54.400;18.566;2022-12-18T12:35:22;18.63;;;7.90;;
42364;SDS011;28498;54.400;18.566;2022-12-18T12:38:04;19.58;;;10.18;;
42364;SDS011;28498;54.400;18.566;2022-12-18T12:40:46;18.73;;;7.80;;
42364;SDS011;28498;54.400;18.566;2022-12-18T12:44:05;16.77;;;7.90;;
42364;SDS011;28498;54.400;18.566;2022-12-18T12:46:37;16.48;;;6.18;;
42364;SDS011;28498;54.400;18.566;2022-12-18T12:49:15;18.35;;;6.82;;
42364;SDS011;28498;54.400;18.566;2022-12-18T12:51:45;15.70;;;7.63;;
42364;SDS011;28498;54.400;18.566;2022-12-18T12:54:21;14.70;;;7.03;;
42364;SDS011;28498;54.400;18.566;2022-12-18T12:56:57;14.15;;;6.10;;
42364;SDS011;28498;54.400;18.566;2022-12-18T13:02:42;16.88;;;7.60;;
42364;SDS011;28498;54.400;18.566;2022-12-18T13:13:08;14.32;;;5.93;;
42364;SDS011;28498;54.400;18.566;2022-12-18T13:18:20;11.77;;;6.47;;
42364;SDS011;28498;54.400;18.566;2022-12-18T13:23:35;17.73;;;7.43;;
42364;SDS011;28498;54.400;18.566;2022-12-18T13:36:54;14.50;;;6.30;;
42364;SDS011;28498;54.400;18.566;2022-12-18T13:39:24;15.38;;;7.07;;
42364;SDS011;28498;54.400;18.566;2022-12-18T13:49:58;16.17;;;6.90;;
42364;SDS011;28498;54.400;18.566;2022-12-18T13:52:33;15.82;;;7.55;;
42364;SDS011;28498;54.400;18.566;2022-12-18T13:55:04;18.25;;;6.93;;
42364;SDS011;28498;54.400;18.566;2022-12-18T13:57:41;16.98;;;6.53;;
42364;SDS011;28498;54.400;18.566;2022-12-18T14:02:51;18.92;;;7.68;;
42364;SDS011;28498;54.400;18.566;2022-12-18T14:05:23;13.45;;;6.50;;
42364;SDS011;28498;54.400;18.566;2022-12-18T14:07:54;13.65;;;6.72;;
42364;SDS011;28498;54.400;18.566;2022-12-18T14:10:26;11.30;;;6.25;;
42364;SDS011;28498;54.400;18.566;2022-12-18T14:16:11;13.90;;;7.40;;
42364;SDS011;28498;54.400;18.566;2022-12-18T14:18:54;20.75;;;8.75;;
42364;SDS011;28498;54.400;18.566;2022-12-18T14:21:40;15.15;;;7.68;;
42364;SDS011;28498;54.400;18.566;2022-12-18T14:24:21;14.57;;;6.60;;
42364;SDS011;28498;54.400;18.566;2022-12-18T14:26:49;16.05;;;7.72;;
42364;SDS011;28498;54.400;18.566;2022-12-18T14:29:29;23.40;;;8.10;;
42364;SDS011;28498;54.400;18.566;2022-12-18T14:32:30;19.40;;;7.35;;
42364;SDS011;28498;54.400;18.566;2022-12-18T14:34:51;16.52;;;7.28;;
42364;SDS011;28498;54.400;18.566;2022-12-18T14:37:21;22.67;;;8.50;;
42364;SDS011;28498;54.400;18.566;2022-12-18T14:39:58;19.33;;;7.88;;
42364;SDS011;28498;54.400;18.566;2022-12-18T14:42:35;16.90;;;6.95;;
42364;SDS011;28498;54.400;18.566;2022-12-18T14:47:49;16.27;;;7.78;;
42364;SDS011;28498;54.400;18.566;2022-12-18T14:50:17;17.60;;;7.55;;
42364;SDS011;28498;54.400;18.566;2022-12-18T14:52:44;27.92;;;11.25;;
42364;SDS011;28498;54.400;18.566;2022-12-18T14:55:16;21.08;;;8.52;;
42364;SDS011;28498;54.400;18.566;2022-12-18T14:57:43;16.80;;;6.88;;
42364;SDS011;28498;54.400;18.566;2022-12-18T15:00:15;18.95;;;7.82;;
42364;SDS011;28498;54.400;18.566;2022-12-18T15:02:43;17.70;;;8.23;;
42364;SDS011;28498;54.400;18.566;2022-12-18T15:07:58;16.65;;;7.05;;
42364;SDS011;28498;54.400;18.566;2022-12-18T15:10:27;20.08;;;7.70;;
42364;SDS011;28498;54.400;18.566;2022-12-18T15:18:16;22.77;;;8.68;;
42364;SDS011;28498;54.400;18.566;2022-12-18T15:20:47;18.40;;;7.55;;
42364;SDS011;28498;54.400;18.566;2022-12-18T15:23:16;21.10;;;8.70;;
42364;SDS011;28498;54.400;18.566;2022-12-18T15:25:44;19.17;;;8.45;;
42364;SDS011;28498;54.400;18.566;2022-12-18T15:28:18;25.60;;;8.85;;
42364;SDS011;28498;54.400;18.566;2022-12-18T15:33:29;17.55;;;7.85;;
42364;SDS011;28498;54.400;18.566;2022-12-18T15:35:57;15.00;;;6.30;;
42364;SDS011;28498;54.400;18.566;2022-12-18T15:38:25;22.85;;;7.50;;
42364;SDS011;28498;54.400;18.566;2022-12-18T15:40:53;14.18;;;6.93;;
42364;SDS011;28498;54.400;18.566;2022-12-18T15:43:23;22.73;;;7.57;;
42364;SDS011;28498;54.400;18.566;2022-12-18T15:46:33;16.58;;;7.45;;
42364;SDS011;28498;54.400;18.566;2022-12-18T15:48:54;18.20;;;7.43;;
42364;SDS011;28498;54.400;18.566;2022-12-18T15:51:28;17.03;;;6.70;;
42364;SDS011;28498;54.400;18.566;2022-12-18T15:53:57;19.38;;;7.20;;
42364;SDS011;28498;54.400;18.566;2022-12-18T15:56:25;18.83;;;8.00;;
42364;SDS011;28498;54.400;18.566;2022-12-18T15:59:13;19.45;;;7.35;;
42364;SDS011;28498;54.400;18.566;2022-12-18T16:01:41;14.02;;;6.50;;
42364;SDS011;28498;54.400;18.566;2022-12-18T16:04:13;18.80;;;8.05;;
42364;SDS011;28498;54.400;18.566;2022-12-18T16:06:41;19.30;;;8.18;;
42364;SDS011;28498;54.400;18.566;2022-12-18T16:09:29;18.08;;;7.20;;
42364;SDS011;28498;54.400;18.566;2022-12-18T16:11:59;15.95;;;7.38;;
42364;SDS011;28498;54.400;18.566;2022-12-18T16:14:28;20.17;;;8.23;;
42364;SDS011;28498;54.400;18.566;2022-12-18T16:16:57;18.85;;;8.30;;
42364;SDS011;28498;54.400;18.566;2022-12-18T16:19:24;25.83;;;8.57;;
42364;SDS011;28498;54.400;18.566;2022-12-18T16:21:52;21.55;;;8.20;;
42364;SDS011;28498;54.400;18.566;2022-12-18T16:24:22;17.02;;;7.57;;
42364;SDS011;28498;54.400;18.566;2022-12-18T16:26:49;22.88;;;8.60;;
42364;SDS011;28498;54.400;18.566;2022-12-18T16:29:20;20.92;;;9.10;;
42364;SDS011;28498;54.400;18.566;2022-12-18T16:31:51;21.30;;;8.73;;
42364;SDS011;28498;54.400;18.566;2022-12-18T16:36:50;22.20;;;9.52;;
42364;SDS011;28498;54.400;18.566;2022-12-18T16:39:18;28.25;;;9.43;;
42364;SDS011;28498;54.400;18.566;2022-12-18T16:41:45;23.50;;;8.93;;
42364;SDS011;28498;54.400;18.566;2022-12-18T16:44:13;23.27;;;9.18;;
42364;SDS011;28498;54.400;18.566;2022-12-18T16:46:40;28.17;;;9.75;;
42364;SDS011;28498;54.400;18.566;2022-12-18T16:49:14;20.80;;;8.43;;
42364;SDS011;28498;54.400;18.566;2022-12-18T16:51:42;20.55;;;8.65;;
42364;SDS011;28498;54.400;18.566;2022-12-18T16:54:10;24.15;;;9.85;;
42364;SDS011;28498;54.400;18.566;2022-12-18T16:56:44;24.20;;;8.98;;
42364;SDS011;28498;54.400;18.566;2022-12-18T16:59:13;21.70;;;8.73;;
42364;SDS011;28498;54.400;18.566;2022-12-18T17:01:40;17.80;;;7.85;;